Time;durP1;ratioP1;P1;durP2;ratioP2;P2;SDS_P1;SDS_P2;PMS_P1;PMS_P2;Temp;Humidity;BMP_temperature;BMP_pressure;BME280_temperature;BME280_humidity;BME280_pressure;Samples;Min_cycle;Max_cycle;Signal;HPM_P1;HPM_P2
2023/01/05 00:01:41;;;;;;;16.58;3.55;;;11.30;99.90;;;;;;5071770;28;20206;-45
2023/01/05 00:04:06;;;;;;;9.05;2.67;;;11.20;99.90;;;;;;5072631;28;20172;-45
2023/01/05 00:06:32;;;;;;;16.95;3.55;;;11.20;99.90;;;;;;5072460;28;20558;-45
2023/01/05 00:08:58;;;;;;;14.50;3.28;;;11.20;99.90;;;;;;5071832;28;20178;-45
2023/01/05 00:22:43;;;;;;;20.92;3.88;;;11.20;99.90;;;;;;5072293;28;20235;-45
2023/01/05 00:25:16;;;;;;;17.35;3.63;;;11.10;99.90;;;;;;5072256;28;20177;-45
2023/01/05 00:27:43;;;;;;;18.33;3.38;;;11.20;99.90;;;;;;5070810;28;20173;-45
2023/01/05 00:30:11;;;;;;;13.95;2.65;;;11.20;99.90;;;;;;5071918;28;20545;-45
2023/01/05 00:32:37;;;;;;;14.60;2.72;;;11.10;99.90;;;;;;5071729;28;20173;-47
2023/01/05 00:35:03;;;;;;;14.65;3.75;;;11.10;99.90;;;;;;5072061;28;20170;-47
2023/01/05 00:37:33;;;;;;;16.10;3.45;;;11.10;99.90;;;;;;5072434;28;20166;-48
2023/01/05 00:39:59;;;;;;;12.48;2.78;;;11.10;99.90;;;;;;5072538;28;20170;-48
2023/01/05 00:42:24;;;;;;;13.52;2.97;;;11.10;99.90;;;;;;5071958;28;20212;-48
2023/01/05 00:44:50;;;;;;;19.40;3.45;;;11.10;99.90;;;;;;5072127;28;20220;-47
2023/01/05 00:47:16;;;;;;;16.30;3.45;;;11.10;99.90;;;;;;5071844;28;20165;-47
2023/01/05 00:49:41;;;;;;;20.42;3.42;;;11.10;99.90;;;;;;5072060;28;20169;-46
2023/01/05 00:52:07;;;;;;;9.77;2.75;;;11.10;99.90;;;;;;5071839;28;20573;-46
2023/01/05 00:54:33;;;;;;;8.93;2.35;;;11.00;99.90;;;;;;5071702;28;20176;-45
2023/01/05 00:56:59;;;;;;;16.20;3.15;;;11.10;99.90;;;;;;5072101;28;20170;-45
2023/01/05 00:59:25;;;;;;;9.80;2.53;;;11.00;99.90;;;;;;5071895;28;20197;-45
2023/01/05 01:01:52;;;;;;;13.23;3.15;;;11.10;99.90;;;;;;5071290;28;20794;-45
2023/01/05 01:04:18;;;;;;;8.68;2.58;;;11.10;99.90;;;;;;5071385;28;20162;-46
2023/01/05 01:06:44;;;;;;;11.43;3.30;;;11.00;99.90;;;;;;5071855;28;20505;-45
2023/01/05 01:09:11;;;;;;;11.18;3.22;;;11.00;99.90;;;;;;5071570;28;20170;-45
2023/01/05 01:11:37;;;;;;;13.05;3.05;;;11.00;99.90;;;;;;5071491;28;20158;-45
2023/01/05 01:14:06;;;;;;;18.08;3.25;;;11.00;99.90;;;;;;5071544;28;20249;-45
2023/01/05 01:16:32;;;;;;;14.00;2.13;;;11.00;99.90;;;;;;5071810;28;20606;-45
2023/01/05 01:18:58;;;;;;;11.15;2.83;;;11.00;99.90;;;;;;5071885;28;20186;-45
2023/01/05 01:21:24;;;;;;;13.15;3.42;;;11.00;99.90;;;;;;5071496;28;20223;-45
2023/01/05 01:23:50;;;;;;;15.85;3.22;;;11.00;99.90;;;;;;5071414;28;20208;-45
2023/01/05 01:26:15;;;;;;;20.50;5.80;;;10.90;99.90;;;;;;5071466;28;20166;-45
2023/01/05 01:28:41;;;;;;;14.13;2.25;;;11.00;99.90;;;;;;5071398;28;20166;-45
2023/01/05 01:31:06;;;;;;;8.77;2.72;;;11.00;99.90;;;;;;5071337;28;20248;-45
2023/01/05 01:33:33;;;;;;;16.35;3.53;;;10.90;99.90;;;;;;5071351;28;20602;-45
2023/01/05 01:36:02;;;;;;;18.33;3.08;;;11.00;99.90;;;;;;5071479;28;20203;-45
2023/01/05 01:38:28;;;;;;;13.95;3.15;;;10.90;99.90;;;;;;5070466;28;20181;-45
2023/01/05 01:40:54;;;;;;;12.70;2.70;;;10.90;99.90;;;;;;5071350;28;20174;-45
2023/01/05 01:43:38;;;;;;;16.50;3.40;;;10.90;99.90;;;;;;5071437;28;20217;-45
2023/01/05 01:46:04;;;;;;;10.40;2.63;;;10.90;99.90;;;;;;5056839;28;20162;-45
2023/01/05 01:48:31;;;;;;;18.83;3.92;;;10.90;99.90;;;;;;5075428;28;20520;-45
2023/01/05 01:50:57;;;;;;;9.95;2.15;;;10.90;99.90;;;;;;5075436;28;20164;-45
2023/01/05 01:53:29;;;;;;;26.63;3.92;;;10.90;99.90;;;;;;5075276;28;20174;-46
2023/01/05 01:55:58;;;;;;;18.17;4.22;;;10.90;99.90;;;;;;5074980;28;20176;-45
2023/01/05 01:58:28;;;;;;;17.23;3.25;;;10.90;99.90;;;;;;5075030;28;20166;-45
2023/01/05 02:00:54;;;;;;;17.17;3.58;;;10.90;99.90;;;;;;5074884;28;20182;-46
2023/01/05 02:03:19;;;;;;;13.30;3.60;;;10.90;99.90;;;;;;5074754;28;20232;-45
2023/01/05 02:05:45;;;;;;;16.98;3.20;;;10.80;99.90;;;;;;5074726;28;20682;-45
2023/01/05 02:08:13;;;;;;;13.07;3.53;;;10.80;99.90;;;;;;5074725;28;20173;-45
2023/01/05 02:11:04;;;;;;;20.38;3.70;;;10.80;99.90;;;;;;5074513;28;20258;-45
2023/01/05 02:13:55;;;;;;;14.68;3.47;;;10.80;99.90;;;;;;5075071;28;20166;-45
2023/01/05 02:16:53;;;;;;;22.45;4.10;;;10.80;99.90;;;;;;5074669;28;20190;-45
2023/01/05 02:19:49;;;;;;;9.50;2.95;;;10.70;99.90;;;;;;5074587;28;20575;-45
2023/01/05 02:22:52;;;;;;;18.95;3.25;;;10.70;99.90;;;;;;5074471;28;20226;-45
2023/01/05 02:25:48;;;;;;;16.67;3.45;;;10.70;99.90;;;;;;5074431;28;20170;-46
2023/01/05 02:28:40;;;;;;;15.93;3.40;;;10.60;99.90;;;;;;5074353;28;20166;-45
2023/01/05 02:31:12;;;;;;;20.52;3.85;;;10.60;99.90;;;;;;5074318;28;20507;-45
2023/01/05 02:34:03;;;;;;;14.73;3.67;;;10.60;99.90;;;;;;5074323;28;20201;-46
2023/01/05 02:36:46;;;;;;;14.40;3.30;;;10.50;99.90;;;;;;5074613;28;20161;-45
2023/01/05 02:39:27;;;;;;;14.63;3.75;;;10.50;99.90;;;;;;5074170;28;20211;-46
2023/01/05 02:42:04;;;;;;;22.88;4.00;;;10.50;99.90;;;;;;5074014;28;20243;-46
2023/01/05 02:44:32;;;;;;;18.40;3.47;;;10.50;99.90;;;;;;5074387;28;20173;-47
2023/01/05 02:47:00;;;;;;;21.58;5.55;;;10.50;99.90;;;;;;5074420;28;20203;-46
2023/01/05 02:49:27;;;;;;;17.42;3.28;;;10.50;99.90;;;;;;5074501;28;20653;-46
2023/01/05 02:51:55;;;;;;;17.10;4.82;;;10.50;99.90;;;;;;5073927;28;20166;-46
2023/01/05 02:54:37;;;;;;;18.13;4.20;;;10.60;99.90;;;;;;5073911;28;20169;-46
2023/01/05 02:57:45;;;;;;;15.00;3.92;;;10.60;99.90;;;;;;5073767;28;20223;-46
2023/01/05 03:00:10;;;;;;;25.95;3.58;;;10.60;99.90;;;;;;5073691;28;20185;-45
2023/01/05 03:02:38;;;;;;;22.58;3.97;;;10.50;99.90;;;;;;5073489;28;20228;-45
2023/01/05 03:05:08;;;;;;;18.30;4.57;;;10.60;99.90;;;;;;5073664;28;20232;-45
2023/01/05 03:07:38;;;;;;;16.00;2.78;;;10.60;99.90;;;;;;5073711;28;20169;-45
2023/01/05 03:15:39;;;;;;;16.45;3.22;;;10.50;99.90;;;;;;5073593;28;20636;-45
2023/01/05 03:18:09;;;;;;;19.73;4.35;;;10.60;99.90;;;;;;5073471;28;20245;-45
2023/01/05 03:20:39;;;;;;;13.00;3.92;;;10.50;99.90;;;;;;5073442;28;20169;-45
2023/01/05 03:37:59;;;;;;;22.02;3.90;;;10.60;99.90;;;;;;5073040;28;20197;-45
2023/01/05 03:40:30;;;;;;;20.40;4.70;;;10.60;99.90;;;;;;5073029;28;20626;-45
2023/01/05 03:42:56;;;;;;;18.08;4.05;;;10.60;99.90;;;;;;5073249;28;20209;-45
2023/01/05 03:45:25;;;;;;;13.82;3.42;;;10.60;99.90;;;;;;5071681;28;20158;-45
2023/01/05 03:47:50;;;;;;;16.70;3.40;;;10.50;99.90;;;;;;5073076;28;20539;-45
2023/01/05 03:50:16;;;;;;;28.85;3.95;;;10.60;99.90;;;;;;5073006;28;20255;-45
2023/01/05 03:52:42;;;;;;;8.02;2.60;;;10.50;99.90;;;;;;5072794;28;20173;-45
2023/01/05 03:55:08;;;;;;;19.15;3.03;;;10.60;99.90;;;;;;5072799;28;20231;-45
2023/01/05 03:57:33;;;;;;;20.10;4.40;;;10.60;99.90;;;;;;5072877;28;20192;-45
2023/01/05 03:59:59;;;;;;;15.05;2.92;;;10.60;99.90;;;;;;5073135;28;20629;-45
2023/01/05 04:02:25;;;;;;;16.80;3.25;;;10.60;99.90;;;;;;5072052;28;20305;-45
2023/01/05 04:04:50;;;;;;;23.20;4.60;;;10.60;99.90;;;;;;5072474;28;20636;-45
2023/01/05 04:07:16;;;;;;;17.65;4.45;;;10.60;99.90;;;;;;5071733;28;20165;-45
2023/01/05 04:09:42;;;;;;;21.83;4.00;;;10.60;99.90;;;;;;5072415;28;20165;-45
2023/01/05 04:12:07;;;;;;;17.55;4.32;;;10.60;99.90;;;;;;5072329;28;20158;-45
2023/01/05 04:14:33;;;;;;;21.27;3.05;;;10.60;99.90;;;;;;5072367;28;20216;-45
2023/01/05 04:16:58;;;;;;;16.58;4.20;;;10.60;99.90;;;;;;5072706;28;20653;-45
2023/01/05 04:19:24;;;;;;;17.38;3.60;;;10.60;99.90;;;;;;5072198;28;20169;-45
2023/01/05 04:21:49;;;;;;;21.35;3.33;;;10.60;99.90;;;;;;5072155;28;21011;-45
2023/01/05 04:24:15;;;;;;;22.27;4.25;;;10.60;99.90;;;;;;5072034;28;20181;-46
2023/01/05 04:26:41;;;;;;;19.95;4.30;;;10.70;99.90;;;;;;5072157;28;20232;-45
2023/01/05 04:29:09;;;;;;;18.08;4.47;;;10.60;99.90;;;;;;5072013;28;20204;-45
2023/01/05 04:31:34;;;;;;;19.38;3.40;;;10.60;99.90;;;;;;5072040;28;20626;-45
2023/01/05 04:34:00;;;;;;;24.27;4.50;;;10.70;99.90;;;;;;5072070;28;20168;-45
2023/01/05 04:36:25;;;;;;;14.35;4.03;;;10.60;99.90;;;;;;5072385;28;20201;-45
2023/01/05 04:38:51;;;;;;;16.85;3.17;;;10.70;99.90;;;;;;5071940;28;20626;-45
2023/01/05 04:41:17;;;;;;;17.95;3.40;;;10.70;99.90;;;;;;5071889;28;20650;-45
2023/01/05 04:43:42;;;;;;;18.35;3.47;;;10.70;99.90;;;;;;5071809;28;20562;-45
2023/01/05 04:46:08;;;;;;;12.27;3.10;;;10.60;99.90;;;;;;5072035;28;20162;-45
2023/01/05 04:48:33;;;;;;;18.90;4.47;;;10.60;99.90;;;;;;5071779;28;20174;-45
2023/01/05 04:50:59;;;;;;;23.45;3.70;;;10.50;99.90;;;;;;5072371;28;20166;-45
2023/01/05 04:53:24;;;;;;;23.88;3.42;;;10.50;99.90;;;;;;5071764;28;20194;-45
2023/01/05 04:55:51;;;;;;;15.30;3.70;;;10.40;99.90;;;;;;5070458;28;20630;-45
2023/01/05 04:58:17;;;;;;;14.30;3.42;;;10.40;99.90;;;;;;5071731;28;20170;-47
2023/01/05 05:00:43;;;;;;;24.80;4.43;;;10.40;99.90;;;;;;5071727;28;20162;-45
2023/01/05 05:03:08;;;;;;;25.02;3.97;;;10.30;99.90;;;;;;5071432;28;20233;-45
2023/01/05 05:05:34;;;;;;;18.58;3.78;;;10.30;99.90;;;;;;5071267;28;20194;-45
2023/01/05 05:08:00;;;;;;;20.90;3.90;;;10.30;99.90;;;;;;5071405;28;20173;-45
2023/01/05 05:10:25;;;;;;;22.45;4.60;;;10.30;99.90;;;;;;5071929;28;20679;-46
2023/01/05 05:12:51;;;;;;;27.83;4.35;;;10.30;99.90;;;;;;5071635;28;20170;-45
2023/01/05 05:15:17;;;;;;;18.92;4.60;;;10.30;99.90;;;;;;5071722;28;20161;-46
2023/01/05 05:17:42;;;;;;;20.35;3.53;;;10.30;99.90;;;;;;5071741;28;20174;-45
2023/01/05 05:20:08;;;;;;;25.45;4.10;;;10.30;99.90;;;;;;5075372;28;20162;-45
2023/01/05 05:22:34;;;;;;;21.33;4.38;;;10.30;99.90;;;;;;5075534;28;20690;-45
2023/01/05 05:24:59;;;;;;;19.90;3.95;;;10.30;99.90;;;;;;5076004;28;20172;-45
2023/01/05 05:27:25;;;;;;;15.75;3.38;;;10.30;99.90;;;;;;5075851;28;20193;-45
2023/01/05 05:29:50;;;;;;;16.70;3.83;;;10.30;99.90;;;;;;5075467;28;20173;-45
2023/01/05 05:32:16;;;;;;;17.55;3.83;;;10.30;99.90;;;;;;5075441;28;20255;-45
2023/01/05 05:34:41;;;;;;;26.33;4.55;;;10.30;99.90;;;;;;5075380;28;20261;-46
2023/01/05 05:37:07;;;;;;;26.52;4.15;;;10.20;99.90;;;;;;5075610;28;20165;-45
2023/01/05 05:39:33;;;;;;;20.05;4.00;;;10.20;99.90;;;;;;5075544;28;20666;-45
2023/01/05 05:41:58;;;;;;;22.98;4.95;;;10.30;99.90;;;;;;5075531;28;20170;-45
2023/01/05 05:44:24;;;;;;;29.17;4.40;;;10.30;99.90;;;;;;5075223;28;20227;-47
2023/01/05 05:46:49;;;;;;;21.42;3.85;;;10.30;99.90;;;;;;5075238;28;20170;-47
2023/01/05 05:49:15;;;;;;;17.40;4.05;;;10.30;99.90;;;;;;5075158;28;20307;-46
2023/01/05 05:51:40;;;;;;;17.85;4.10;;;10.40;99.90;;;;;;5074985;28;20575;-47
2023/01/05 05:54:06;;;;;;;22.92;3.88;;;10.30;99.90;;;;;;5074851;28;20173;-47
2023/01/05 05:56:31;;;;;;;19.40;3.70;;;10.30;99.90;;;;;;5074845;28;20174;-46
2023/01/05 05:58:57;;;;;;;23.40;4.38;;;10.40;99.90;;;;;;5075145;28;20259;-47
2023/01/05 06:01:23;;;;;;;24.13;4.75;;;10.40;99.90;;;;;;5074588;28;20170;-46
2023/01/05 06:03:48;;;;;;;21.95;3.05;;;10.30;99.90;;;;;;5074613;28;20251;-46
2023/01/05 06:06:14;;;;;;;31.08;5.47;;;10.30;99.90;;;;;;5074745;28;20173;-46
2023/01/05 06:08:39;;;;;;;25.17;4.38;;;10.40;99.90;;;;;;5074847;28;20174;-45
2023/01/05 06:11:06;;;;;;;33.80;4.95;;;10.40;99.90;;;;;;5074741;28;20166;-46
2023/01/05 06:13:32;;;;;;;26.55;5.43;;;10.40;99.90;;;;;;5074888;28;20181;-47
2023/01/05 06:15:58;;;;;;;19.90;4.25;;;10.40;99.90;;;;;;5074996;28;20166;-46
2023/01/05 06:18:23;;;;;;;28.17;4.78;;;10.40;99.90;;;;;;5074510;28;20224;-47
2023/01/05 06:20:49;;;;;;;27.85;5.03;;;10.40;99.90;;;;;;5074767;28;20180;-46
2023/01/05 06:23:14;;;;;;;21.25;4.28;;;10.40;99.90;;;;;;5074600;28;20289;-46
2023/01/05 06:25:40;;;;;;;20.23;3.70;;;10.40;99.90;;;;;;5074357;28;20221;-45
2023/01/05 06:28:05;;;;;;;22.95;4.47;;;10.40;99.90;;;;;;5074320;28;20173;-46
2023/01/05 06:30:31;;;;;;;21.92;3.97;;;10.50;99.90;;;;;;5073574;28;20162;-46
2023/01/05 06:32:57;;;;;;;23.90;4.78;;;10.50;99.90;;;;;;5074660;28;20170;-47
2023/01/05 06:35:22;;;;;;;25.70;4.95;;;10.50;99.90;;;;;;5074263;28;20166;-46
2023/01/05 06:37:48;;;;;;;19.70;4.03;;;10.50;99.90;;;;;;5074248;28;20170;-47
2023/01/05 06:40:13;;;;;;;22.13;4.32;;;10.50;99.90;;;;;;5074071;28;20162;-46
2023/01/05 06:42:39;;;;;;;29.20;5.07;;;10.50;99.90;;;;;;5074029;28;20209;-46
2023/01/05 06:45:06;;;;;;;20.10;4.75;;;10.50;99.90;;;;;;5074052;28;20190;-45
2023/01/05 06:47:32;;;;;;;22.10;4.20;;;10.50;99.90;;;;;;5074031;28;20173;-45
2023/01/05 06:49:58;;;;;;;21.60;4.30;;;10.50;99.90;;;;;;5074847;28;20518;-45
2023/01/05 06:52:24;;;;;;;17.85;4.95;;;10.40;99.90;;;;;;5074029;28;20166;-46
2023/01/05 06:54:49;;;;;;;28.33;4.93;;;10.50;99.90;;;;;;5072994;28;20223;-46
2023/01/05 06:57:15;;;;;;;24.10;4.97;;;10.50;99.90;;;;;;5074182;28;20686;-47
2023/01/05 06:59:41;;;;;;;28.77;5.00;;;10.40;99.90;;;;;;5073807;28;20173;-46
2023/01/05 07:02:13;;;;;;;22.27;4.78;;;10.50;99.90;;;;;;5073511;28;20303;-46
2023/01/05 07:04:39;;;;;;;27.50;4.00;;;10.50;99.90;;;;;;5073969;28;20178;-46
2023/01/05 07:07:04;;;;;;;20.70;5.25;;;10.50;99.90;;;;;;5073656;28;20162;-48
2023/01/05 07:09:30;;;;;;;24.77;6.00;;;10.40;99.90;;;;;;5073664;28;20174;-45
2023/01/05 07:11:55;;;;;;;13.88;3.53;;;10.50;99.90;;;;;;5074023;28;20170;-47
2023/01/05 07:14:21;;;;;;;25.25;5.22;;;10.50;99.90;;;;;;5072372;28;20349;-47
2023/01/05 07:16:46;;;;;;;25.88;4.97;;;10.50;99.90;;;;;;5073462;28;20173;-45
2023/01/05 07:19:12;;;;;;;27.55;5.03;;;10.50;99.90;;;;;;5073407;28;20176;-45
2023/01/05 07:21:37;;;;;;;24.33;4.20;;;10.50;99.90;;;;;;5073450;28;20649;-45
2023/01/05 07:24:03;;;;;;;25.23;5.32;;;10.50;99.90;;;;;;5073247;28;20233;-45
2023/01/05 07:26:29;;;;;;;22.77;4.60;;;10.50;99.90;;;;;;5073649;28;20170;-45
2023/01/05 07:28:55;;;;;;;25.10;4.93;;;13.20;99.90;;;;;;5073610;28;20173;-45
2023/01/05 07:31:20;;;;;;;28.50;5.68;;;10.50;99.90;;;;;;5073112;28;20590;-45
2023/01/05 07:33:46;;;;;;;19.25;4.13;;;10.40;99.90;;;;;;5073096;28;20252;-45
2023/01/05 07:36:12;;;;;;;24.20;3.97;;;10.50;99.90;;;;;;5073024;28;20526;-45
2023/01/05 07:38:37;;;;;;;14.05;4.18;;;10.50;99.90;;;;;;5073247;28;20254;-45
2023/01/05 07:41:03;;;;;;;20.67;4.88;;;10.50;99.90;;;;;;5072955;28;20315;-45
2023/01/05 07:43:29;;;;;;;28.25;5.55;;;10.50;99.90;;;;;;5072268;28;20295;-45
2023/01/05 07:45:58;;;;;;;23.52;4.15;;;10.50;99.90;;;;;;5073479;28;20170;-45
2023/01/05 07:48:24;;;;;;;30.65;5.25;;;10.50;99.90;;;;;;5073386;28;20504;-47
2023/01/05 07:50:50;;;;;;;20.75;4.65;;;10.50;99.90;;;;;;5072754;28;20219;-45
2023/01/05 07:53:16;;;;;;;22.67;5.32;;;10.50;99.90;;;;;;5072700;28;20169;-45
2023/01/05 07:55:41;;;;;;;17.38;4.50;;;10.50;99.90;;;;;;5072636;28;20170;-45
2023/01/05 07:58:07;;;;;;;22.92;4.63;;;10.50;99.90;;;;;;5072729;28;20181;-45
2023/01/05 08:00:32;;;;;;;20.88;4.70;;;10.50;99.90;;;;;;5072560;28;20173;-45
2023/01/05 08:02:58;;;;;;;27.13;5.20;;;10.50;99.90;;;;;;5072693;28;20232;-46
2023/01/05 08:05:28;;;;;;;28.17;6.88;;;10.50;99.90;;;;;;5071269;28;20166;-46
2023/01/05 08:07:54;;;;;;;19.83;4.65;;;10.50;99.90;;;;;;5073023;28;20257;-46
2023/01/05 08:10:29;;;;;;;20.38;5.43;;;10.50;99.90;;;;;;5072439;28;20660;-47
2023/01/05 08:15:44;;;;;;;21.70;4.10;;;10.50;99.90;;;;;;5072557;28;20208;-47
2023/01/05 08:18:09;;;;;;;23.80;4.97;;;10.50;99.90;;;;;;5072182;28;20193;-46
2023/01/05 08:20:35;;;;;;;35.60;5.35;;;10.50;99.90;;;;;;5072240;28;20275;-46
2023/01/05 08:23:00;;;;;;;28.13;4.53;;;10.50;99.90;;;;;;5072208;28;20228;-47
2023/01/05 08:25:27;;;;;;;21.35;4.88;;;10.50;99.90;;;;;;5072454;28;20656;-47
2023/01/05 08:27:52;;;;;;;24.88;5.22;;;10.50;99.90;;;;;;5072229;28;20240;-46
2023/01/05 08:30:18;;;;;;;30.55;6.38;;;10.50;99.90;;;;;;5072025;28;20166;-46
2023/01/05 08:32:43;;;;;;;25.33;4.53;;;9.20;99.90;;;;;;5072032;28;20169;-46
2023/01/05 08:35:09;;;;;;;29.17;6.05;;;10.60;99.90;;;;;;5072064;28;20224;-47
2023/01/05 08:37:35;;;;;;;15.98;4.03;;;10.60;99.90;;;;;;5072039;28;20170;-46
2023/01/05 08:40:00;;;;;;;23.85;4.28;;;10.60;99.90;;;;;;5071950;28;20170;-45
2023/01/05 08:42:26;;;;;;;29.77;5.00;;;10.60;99.90;;;;;;5072234;28;20653;-46
2023/01/05 08:44:51;;;;;;;30.77;5.00;;;10.60;99.90;;;;;;5071872;28;20180;-47
2023/01/05 08:47:17;;;;;;;23.58;4.75;;;10.60;99.90;;;;;;5071839;28;20170;-46
2023/01/05 08:49:42;;;;;;;21.08;4.65;;;10.60;99.90;;;;;;5071766;28;20253;-47
2023/01/05 08:52:08;;;;;;;32.53;6.00;;;10.70;99.90;;;;;;5071831;28;20170;-46
2023/01/05 08:54:34;;;;;;;34.20;5.47;;;10.60;99.90;;;;;;5071612;28;20170;-46
2023/01/05 08:57:00;;;;;;;27.90;5.05;;;10.60;99.90;;;;;;5071776;28;20626;-45
2023/01/05 08:59:26;;;;;;;24.63;5.55;;;10.70;99.90;;;;;;5072080;28;20257;-47
2023/01/05 09:01:51;;;;;;;25.75;4.65;;;10.70;99.90;;;;;;5071466;28;20244;-47
2023/01/05 09:04:18;;;;;;;18.75;4.88;;;10.80;99.90;;;;;;5071833;28;20312;-46
2023/01/05 09:06:43;;;;;;;32.42;5.22;;;10.80;99.90;;;;;;5071677;28;20599;-45
2023/01/05 09:09:09;;;;;;;35.17;6.45;;;10.80;99.90;;;;;;5071594;28;20177;-45
2023/01/05 09:11:35;;;;;;;25.02;5.70;;;10.80;99.90;;;;;;5071854;28;20166;-46
2023/01/05 09:14:01;;;;;;;25.80;4.95;;;10.80;99.90;;;;;;5069716;28;20178;-47
2023/01/05 09:16:33;;;;;;;26.42;6.00;;;10.80;99.90;;;;;;5070063;28;20203;-45
2023/01/05 09:19:01;;;;;;;30.65;5.60;;;10.80;99.90;;;;;;5069778;28;20231;-42
2023/01/05 09:21:27;;;;;;;26.42;5.25;;;10.80;99.90;;;;;;5069870;28;20162;-45
2023/01/05 09:23:52;;;;;;;27.23;4.70;;;10.80;99.90;;;;;;5069688;28;20206;-45
2023/01/05 09:26:18;;;;;;;21.33;3.85;;;10.80;99.90;;;;;;5069698;28;20209;-45
2023/01/05 09:28:44;;;;;;;21.55;4.72;;;10.80;99.90;;;;;;5069759;28;20169;-45
2023/01/05 09:31:12;;;;;;;24.75;4.60;;;10.90;99.90;;;;;;5069579;28;20166;-45
2023/01/05 09:33:38;;;;;;;23.10;4.80;;;10.90;99.90;;;;;;5069855;28;20166;-47
2023/01/05 09:36:04;;;;;;;22.63;5.68;;;10.90;99.90;;;;;;5069648;28;20197;-45
2023/01/05 09:38:30;;;;;;;26.20;5.90;;;11.00;99.90;;;;;;5069608;28;20170;-45
2023/01/05 09:41:06;;;;;;;20.30;4.35;;;11.00;99.90;;;;;;5070167;28;20219;-45
2023/01/05 09:43:37;;;;;;;28.80;4.90;;;10.90;99.90;;;;;;5069735;28;20209;-44
2023/01/05 09:46:12;;;;;;;28.20;6.28;;;10.90;99.90;;;;;;5069433;28;20166;-45
2023/01/05 09:48:43;;;;;;;24.85;5.18;;;11.00;99.90;;;;;;5069618;28;20260;-46
2023/01/05 09:51:09;;;;;;;27.42;5.15;;;11.00;99.90;;;;;;5069383;28;20510;-46
2023/01/05 09:53:35;;;;;;;27.00;4.82;;;11.00;99.90;;;;;;5069395;28;20177;-46
2023/01/05 09:56:01;;;;;;;36.72;5.53;;;11.00;99.90;;;;;;5069612;28;20174;-46
2023/01/05 09:58:36;;;;;;;30.73;5.97;;;11.00;99.90;;;;;;5069745;28;20166;-46
2023/01/05 10:01:11;;;;;;;29.83;6.38;;;11.00;99.90;;;;;;5069330;28;20507;-46
2023/01/05 10:03:42;;;;;;;28.38;5.88;;;11.00;99.90;;;;;;5069220;28;20707;-45
2023/01/05 10:06:13;;;;;;;24.98;5.65;;;11.00;99.90;;;;;;5071136;28;20170;-46
2023/01/05 10:08:46;;;;;;;19.60;4.63;;;11.10;99.90;;;;;;5072786;28;20694;-45
2023/01/05 10:14:28;;;;;;;19.55;4.60;;;11.20;99.90;;;;;;5072850;28;20177;-46
2023/01/05 10:16:54;;;;;;;22.55;5.53;;;11.20;99.90;;;;;;5065853;28;20189;-46
2023/01/05 10:19:20;;;;;;;24.35;5.00;;;11.20;99.90;;;;;;5071469;28;20166;-47
2023/01/05 10:22:14;;;;;;;24.27;5.55;;;11.30;99.90;;;;;;5072773;28;20257;-48
2023/01/05 10:24:58;;;;;;;26.45;5.30;;;11.30;99.90;;;;;;5072629;28;20186;-47
2023/01/05 10:27:30;;;;;;;27.35;5.30;;;11.30;99.90;;;;;;5072958;28;20315;-47
2023/01/05 10:30:15;;;;;;;27.70;4.35;;;12.10;99.90;;;;;;5073018;28;20162;-47
2023/01/05 10:32:51;;;;;;;27.63;5.43;;;11.30;99.90;;;;;;5072798;28;20182;-48
2023/01/05 10:35:38;;;;;;;15.98;4.53;;;11.40;99.90;;;;;;5072439;28;20165;-48
2023/01/05 10:38:33;;;;;;;24.33;5.65;;;11.30;99.90;;;;;;5072486;28;20169;-48
2023/01/05 10:41:12;;;;;;;23.30;5.00;;;11.40;99.90;;;;;;5071141;28;20567;-47
2023/01/05 10:43:44;;;;;;;22.23;4.68;;;11.40;99.90;;;;;;5072373;28;20216;-46
2023/01/05 10:46:12;;;;;;;31.98;5.22;;;11.40;99.90;;;;;;5072506;28;20170;-47
2023/01/05 10:48:38;;;;;;;23.55;5.88;;;11.50;99.90;;;;;;5072649;28;20198;-46
2023/01/05 10:51:06;;;;;;;30.27;5.75;;;11.50;99.90;;;;;;5072080;28;20172;-45
2023/01/05 10:53:35;;;;;;;24.08;4.65;;;11.50;99.90;;;;;;5072261;28;20676;-45
2023/01/05 10:56:12;;;;;;;25.95;5.47;;;11.50;99.90;;;;;;5072164;28;20197;-45
2023/01/05 10:58:43;;;;;;;21.52;5.03;;;11.50;99.90;;;;;;5072418;28;20201;-47
2023/01/05 11:01:29;;;;;;;22.27;5.13;;;11.50;99.90;;;;;;5068958;28;20607;-47
2023/01/05 11:04:05;;;;;;;23.38;5.90;;;11.50;99.90;;;;;;5072641;28;20202;-47
2023/01/05 11:06:33;;;;;;;19.35;4.65;;;11.50;99.90;;;;;;5071911;28;20712;-46
2023/01/05 11:09:19;;;;;;;18.50;4.50;;;11.50;99.90;;;;;;5071931;28;20212;-46
2023/01/05 11:12:21;;;;;;;26.52;6.03;;;11.50;99.90;;;;;;5071800;28;20243;-46
2023/01/05 11:14:57;;;;;;;24.13;5.22;;;11.50;99.90;;;;;;5049772;28;20189;-46
2023/01/05 11:17:26;;;;;;;28.48;5.15;;;11.60;99.90;;;;;;5071600;28;20184;-46
2023/01/05 11:19:56;;;;;;;21.55;4.30;;;11.60;99.90;;;;;;5071547;28;20166;-47
2023/01/05 11:22:29;;;;;;;24.48;4.63;;;11.70;99.90;;;;;;5071518;28;20194;-46
2023/01/05 11:25:31;;;;;;;28.98;5.60;;;11.60;99.90;;;;;;5072130;28;20162;-46
2023/01/05 11:28:04;;;;;;;22.85;4.03;;;11.60;99.90;;;;;;5072142;28;20211;-47
2023/01/05 11:30:30;;;;;;;26.48;5.15;;;11.60;99.90;;;;;;5071481;28;20170;-44
2023/01/05 11:32:57;;;;;;;19.30;4.70;;;11.60;99.90;;;;;;5071755;28;20166;-47
2023/01/05 11:35:32;;;;;;;20.80;4.57;;;11.60;99.90;;;;;;5071601;28;20218;-45
2023/01/05 11:37:59;;;;;;;23.58;4.78;;;11.70;99.90;;;;;;5071853;28;20178;-46
2023/01/05 11:40:29;;;;;;;22.27;5.03;;;11.70;99.90;;;;;;5071805;28;20259;-45
2023/01/05 11:42:56;;;;;;;23.10;5.05;;;11.90;99.90;;;;;;5071425;28;20194;-45
2023/01/05 11:45:24;;;;;;;26.95;5.05;;;11.90;99.90;;;;;;5071244;28;20178;-44
2023/01/05 11:47:57;;;;;;;23.77;6.10;;;12.10;99.90;;;;;;5071155;28;20249;-44
2023/01/05 11:50:30;;;;;;;19.55;4.80;;;12.20;99.90;;;;;;5071669;28;20170;-45
2023/01/05 11:52:58;;;;;;;26.77;5.35;;;12.20;99.90;;;;;;5071449;28;20652;-44
2023/01/05 11:55:39;;;;;;;18.17;4.82;;;12.10;99.90;;;;;;5071148;28;20173;-45
2023/01/05 11:58:20;;;;;;;22.10;4.57;;;12.10;99.90;;;;;;5071143;28;20166;-45
2023/01/05 12:01:16;;;;;;;26.00;5.65;;;12.20;99.90;;;;;;5071137;28;20189;-45
2023/01/05 12:04:00;;;;;;;26.02;4.53;;;9.70;99.90;;;;;;5070734;28;20233;-45
2023/01/05 12:06:46;;;;;;;16.55;4.07;;;12.20;99.90;;;;;;5069876;28;20197;-45
2023/01/05 12:09:56;;;;;;;14.23;3.50;;;12.10;99.90;;;;;;5070668;28;20177;-45
2023/01/05 12:12:56;;;;;;;21.52;4.55;;;12.10;99.90;;;;;;5028388;28;20180;-44
2023/01/05 12:15:48;;;;;;;21.25;5.35;;;12.10;99.90;;;;;;5070425;28;20173;-44
2023/01/05 12:18:48;;;;;;;19.48;4.85;;;12.00;99.90;;;;;;5070469;28;20162;-44
2023/01/05 12:21:26;;;;;;;22.40;4.53;;;11.90;99.90;;;;;;5049065;28;20182;-45
2023/01/05 12:24:22;;;;;;;26.83;5.18;;;11.90;99.90;;;;;;5070349;28;20201;-45
2023/01/05 12:27:32;;;;;;;20.98;4.85;;;11.90;99.90;;;;;;5071232;28;20655;-45
2023/01/05 12:30:03;;;;;;;30.80;5.30;;;12.00;99.90;;;;;;5030010;28;20566;-45
2023/01/05 12:32:50;;;;;;;26.75;5.80;;;12.10;99.90;;;;;;5067528;28;20207;-45
2023/01/05 12:35:48;;;;;;;34.92;5.32;;;12.10;99.90;;;;;;5071961;28;20170;-46
2023/01/05 12:38:33;;;;;;;23.30;5.25;;;12.10;99.90;;;;;;5071676;28;20169;-45
2023/01/05 12:40:58;;;;;;;23.23;4.88;;;12.10;99.90;;;;;;5071744;28;20234;-45
2023/01/05 12:43:43;;;;;;;27.45;5.03;;;12.00;99.90;;;;;;5072176;28;20737;-45
2023/01/05 12:46:41;;;;;;;16.42;5.45;;;12.00;99.90;;;;;;5071890;28;20174;-45
2023/01/05 12:49:16;;;;;;;22.52;4.32;;;11.90;99.90;;;;;;5071841;28;20158;-45
2023/01/05 12:51:53;;;;;;;22.67;5.00;;;11.80;99.90;;;;;;5071854;28;20164;-45
2023/01/05 12:54:37;;;;;;;20.48;4.95;;;11.70;99.90;;;;;;5071737;28;20260;-47
2023/01/05 12:57:24;;;;;;;23.30;5.20;;;11.80;99.90;;;;;;5071786;28;20157;-45
2023/01/05 13:00:02;;;;;;;22.58;5.65;;;11.80;99.90;;;;;;5071644;28;20675;-45
2023/01/05 13:02:35;;;;;;;20.17;4.82;;;11.90;99.90;;;;;;5071623;28;20265;-45
2023/01/05 13:05:18;;;;;;;29.95;4.82;;;12.00;99.90;;;;;;5071594;28;20180;-45
2023/01/05 13:08:01;;;;;;;19.45;4.50;;;12.10;99.90;;;;;;5071584;28;20188;-45
2023/01/05 13:10:48;;;;;;;19.90;4.35;;;12.00;99.90;;;;;;5072219;28;20260;-45
2023/01/05 13:13:19;;;;;;;13.45;3.92;;;12.00;99.90;;;;;;5071629;28;20208;-45
2023/01/05 13:15:55;;;;;;;21.65;4.38;;;12.00;99.90;;;;;;5071577;28;20256;-45
2023/01/05 13:18:23;;;;;;;20.80;5.18;;;11.90;99.90;;;;;;5071775;28;20500;-45
2023/01/05 13:20:53;;;;;;;20.63;4.90;;;11.90;99.90;;;;;;5070105;28;20176;-45
2023/01/05 13:23:32;;;;;;;23.15;4.30;;;11.90;99.90;;;;;;5071615;28;20212;-45
2023/01/05 13:26:14;;;;;;;21.50;4.88;;;11.90;99.90;;;;;;5071550;28;20185;-45
2023/01/05 13:28:40;;;;;;;25.10;6.20;;;11.80;99.90;;;;;;5071425;28;20173;-45
2023/01/05 13:31:19;;;;;;;22.63;4.88;;;11.70;99.90;;;;;;5071343;28;20166;-45
2023/01/05 13:34:03;;;;;;;20.20;4.20;;;11.80;99.90;;;;;;5071283;28;20170;-45